Time;durP1;ratioP1;P1;durP2;ratioP2;P2;SDS_P1;SDS_P2;PMS_P1;PMS_P2;Temp;Humidity;BMP_temperature;BMP_pressure;BME280_temperature;BME280_humidity;BME280_pressure;Samples;Min_cycle;Max_cycle;Signal;HPM_P1;HPM_P2
2023/11/28 00:01:51;;;;;;;7.47;4.72;;;;;;;2.81;100.00;100013.63;6087715;19;20041;-71
2023/11/28 00:03:56;;;;;;;7.43;4.15;;;;;;;2.82;100.00;100021.38;6088584;19;20099;-72
2023/11/28 00:05:59;;;;;;;10.02;4.93;;;;;;;2.78;100.00;100029.25;6088626;19;20578;-71
2023/11/28 00:08:03;;;;;;;7.00;3.80;;;;;;;2.78;100.00;100024.91;6086346;19;20035;-71
2023/11/28 00:10:12;;;;;;;6.00;3.47;;;;;;;2.75;100.00;100026.75;6085498;19;20082;-72
2023/11/28 00:12:17;;;;;;;8.18;4.80;;;;;;;2.75;100.00;100019.81;6085407;19;20023;-71
2023/11/28 00:14:21;;;;;;;7.75;3.80;;;;;;;2.73;100.00;100031.09;6088589;19;20027;-71
2023/11/28 00:16:26;;;;;;;9.30;4.95;;;;;;;2.75;100.00;100034.53;6085480;19;20304;-71
2023/11/28 00:18:31;;;;;;;8.85;4.38;;;;;;;2.73;100.00;100036.28;6086722;19;20448;-71
2023/11/28 00:20:36;;;;;;;9.75;6.07;;;;;;;2.71;100.00;100038.06;6087911;19;20036;-71
2023/11/28 00:22:41;;;;;;;8.35;3.78;;;;;;;2.73;100.00;100044.06;6087916;19;20019;-71
2023/11/28 00:24:43;;;;;;;11.68;6.45;;;;;;;2.74;100.00;100051.84;6087238;19;20006;-71
2023/11/28 00:26:51;;;;;;;9.95;5.22;;;;;;;2.74;100.00;100053.53;6086735;19;20007;-70
2023/11/28 00:28:53;;;;;;;10.00;5.95;;;;;;;2.72;100.00;100056.19;6088692;19;20094;-71
2023/11/28 00:30:58;;;;;;;14.32;6.95;;;;;;;2.78;100.00;100053.47;6086176;19;20521;-70
2023/11/28 00:33:03;;;;;;;12.80;6.00;;;;;;;2.82;100.00;100059.47;6087077;19;20013;-70
2023/11/28 00:35:10;;;;;;;13.85;6.68;;;;;;;2.85;100.00;100061.97;6080817;19;20354;-71
2023/11/28 00:37:12;;;;;;;18.83;7.72;;;;;;;2.82;100.00;100069.84;6084911;19;20017;-70
2023/11/28 00:39:17;;;;;;;14.15;8.23;;;;;;;2.83;100.00;100074.13;6083532;19;20011;-71
2023/11/28 00:41:24;;;;;;;15.75;6.53;;;;;;;2.80;100.00;100074.19;6089296;19;20006;-71
2023/11/28 00:43:31;;;;;;;15.15;7.10;;;;;;;2.80;100.00;100085.41;6083985;19;20021;-71
2023/11/28 00:45:36;;;;;;;13.40;6.03;;;;;;;2.76;100.00;100091.53;6086996;19;20415;-72
2023/11/28 00:47:43;;;;;;;13.15;6.57;;;;;;;2.74;100.00;100095.06;6089025;19;20352;-72
2023/11/28 00:49:46;;;;;;;15.02;6.57;;;;;;;2.73;100.00;100102.00;6088413;19;20081;-73
2023/11/28 00:51:53;;;;;;;13.10;6.68;;;;;;;2.74;100.00;100110.63;6085115;19;20010;-72
2023/11/28 00:53:58;;;;;;;15.68;6.85;;;;;;;2.74;100.00;100105.44;6082144;19;20035;-72
2023/11/28 00:56:00;;;;;;;11.40;6.20;;;;;;;2.69;100.00;100113.34;6086819;19;20550;-71
2023/11/28 00:58:06;;;;;;;13.35;6.25;;;;;;;2.70;100.00;100117.63;6084487;19;20020;-70
2023/11/28 01:00:15;;;;;;;15.18;6.90;;;;;;;2.67;100.00;100122.03;6083049;19;20024;-72
2023/11/28 01:02:20;;;;;;;9.02;4.18;;;;;;;2.64;100.00;100122.94;6088399;19;20056;-71
2023/11/28 01:04:26;;;;;;;11.73;5.50;;;;;;;2.60;100.00;100122.13;6084254;19;20006;-74
2023/11/28 01:06:31;;;;;;;12.90;6.22;;;;;;;2.59;100.00;100123.03;6086271;19;20364;-73
2023/11/28 01:08:36;;;;;;;9.15;5.15;;;;;;;2.63;100.00;100135.06;6087357;19;20007;-71
2023/11/28 01:10:41;;;;;;;12.45;5.22;;;;;;;2.58;100.00;100136.88;6085403;19;20006;-72
2023/11/28 01:12:46;;;;;;;11.00;6.60;;;;;;;2.55;100.00;100139.50;6082934;19;20010;-71
2023/11/28 01:14:51;;;;;;;10.32;5.40;;;;;;;2.54;100.00;100149.94;6086506;19;20466;-71
2023/11/28 01:16:59;;;;;;;8.90;5.47;;;;;;;2.56;100.00;100154.22;6081502;19;20006;-71
2023/11/28 01:19:04;;;;;;;10.45;5.03;;;;;;;2.57;100.00;100153.31;6084959;19;20038;-71
2023/11/28 01:21:11;;;;;;;11.85;5.15;;;;;;;2.57;100.00;100157.66;6087113;19;20442;-71
2023/11/28 01:23:16;;;;;;;9.95;4.85;;;;;;;2.57;100.00;100157.66;6082011;19;20561;-72
2023/11/28 01:25:21;;;;;;;14.45;6.35;;;;;;;2.58;100.00;100165.41;6085935;19;20014;-73
2023/11/28 01:27:23;;;;;;;12.90;6.80;;;;;;;2.57;100.00;100160.25;6083922;19;20007;-71
2023/11/28 01:29:28;;;;;;;14.68;6.15;;;;;;;2.60;100.00;100170.56;6083009;19;20011;-71
2023/11/28 01:31:34;;;;;;;12.15;6.22;;;;;;;2.62;100.00;100169.66;6080905;19;20019;-72
2023/11/28 01:33:42;;;;;;;12.90;6.32;;;;;;;2.60;100.00;100178.34;6081467;19;20643;-71
2023/11/28 01:35:47;;;;;;;11.43;6.13;;;;;;;2.66;100.00;100186.03;6084676;19;20010;-70
2023/11/28 01:37:51;;;;;;;12.43;6.53;;;;;;;2.65;100.00;100184.31;6083377;19;20053;-72
2023/11/28 01:39:56;;;;;;;13.32;6.25;;;;;;;2.65;100.00;100192.09;6085664;19;20010;-71
2023/11/28 01:42:01;;;;;;;17.48;8.45;;;;;;;2.64;100.00;100187.78;6084487;19;20030;-72
2023/11/28 01:44:07;;;;;;;14.48;7.10;;;;;;;2.62;100.00;100192.16;6085451;19;20515;-71
2023/11/28 01:46:15;;;;;;;15.48;7.57;;;;;;;2.63;100.00;100205.09;6085080;19;20051;-72
2023/11/28 01:48:20;;;;;;;11.48;5.38;;;;;;;2.58;100.00;100209.50;6084090;19;20011;-74
2023/11/28 01:50:28;;;;;;;12.20;6.75;;;;;;;2.66;100.00;100221.47;6081334;19;20082;-74
2023/11/28 01:52:34;;;;;;;11.98;5.85;;;;;;;2.64;100.00;100219.75;6081569;19;20021;-73
2023/11/28 01:54:44;;;;;;;13.32;6.35;;;;;;;2.64;100.00;100224.97;6086997;19;20030;-72
2023/11/28 01:56:46;;;;;;;17.13;5.65;;;;;;;2.66;100.00;100231.84;6087522;19;20007;-71
2023/11/28 01:58:51;;;;;;;12.27;6.57;;;;;;;2.54;100.00;100238.97;6087634;19;20003;-71
2023/11/28 02:00:53;;;;;;;10.77;5.00;;;;;;;2.56;100.00;100242.38;6089247;19;20357;-71
2023/11/28 02:03:02;;;;;;;12.85;5.88;;;;;;;2.60;100.00;100244.03;6090976;19;20402;-73
2023/11/28 02:05:08;;;;;;;10.27;5.32;;;;;;;2.55;100.00;100245.84;6089490;19;20010;-71
2023/11/28 02:07:16;;;;;;;10.38;5.18;;;;;;;2.56;100.00;100252.78;6088706;19;20003;-71
2023/11/28 02:09:21;;;;;;;8.52;4.55;;;;;;;2.51;100.00;100254.59;6081921;19;20010;-71
2023/11/28 02:11:26;;;;;;;10.60;5.15;;;;;;;2.50;100.00;100255.47;6086385;19;20085;-72
2023/11/28 02:13:33;;;;;;;7.20;5.15;;;;;;;2.51;100.00;100262.38;6083292;19;20397;-71
2023/11/28 02:15:41;;;;;;;10.25;5.40;;;;;;;2.46;100.00;100271.09;6084124;19;20454;-72
2023/11/28 02:17:46;;;;;;;8.73;3.92;;;;;;;2.54;100.00;100277.88;6075929;19;20066;-71
2023/11/28 02:19:53;;;;;;;8.57;4.97;;;;;;;2.51;100.00;100275.34;6081216;19;20002;-71
2023/11/28 02:21:58;;;;;;;6.60;4.45;;;;;;;2.48;100.00;100277.97;6083642;19;20012;-71
2023/11/28 02:24:09;;;;;;;10.02;4.32;;;;;;;2.48;100.00;100290.09;6083138;19;20038;-71
2023/11/28 02:26:28;;;;;;;10.95;5.07;;;;;;;2.46;100.00;100303.06;6082627;19;20048;-72
2023/11/28 02:28:33;;;;;;;11.52;4.32;;;;;;;2.43;100.00;100300.53;6083603;19;20054;-71
2023/11/28 02:30:37;;;;;;;11.25;5.47;;;;;;;2.44;100.00;100309.16;6082496;19;20010;-71
2023/11/28 02:32:42;;;;;;;9.55;4.97;;;;;;;2.47;100.00;100307.38;6081834;19;20011;-71
2023/11/28 02:34:47;;;;;;;8.07;5.15;;;;;;;2.47;100.00;100317.75;6076825;19;20007;-72
2023/11/28 02:36:52;;;;;;;12.20;6.13;;;;;;;2.44;100.00;100311.75;6080820;19;20010;-72
2023/11/28 02:38:57;;;;;;;8.07;5.03;;;;;;;2.32;100.00;100316.25;6082704;19;20030;-71
2023/11/28 02:40:59;;;;;;;9.90;5.32;;;;;;;2.30;100.00;100311.97;6084388;19;20007;-71
2023/11/28 02:43:07;;;;;;;11.93;5.50;;;;;;;2.27;100.00;100322.41;6084235;19;20007;-73
2023/11/28 02:45:13;;;;;;;9.07;4.03;;;;;;;2.34;100.00;100334.38;6084311;19;20015;-71
2023/11/28 02:47:17;;;;;;;12.30;5.43;;;;;;;2.30;100.00;100332.72;6084019;19;20011;-73
2023/11/28 02:49:21;;;;;;;6.65;4.45;;;;;;;2.28;100.00;100344.84;6079074;19;20152;-72
2023/11/28 02:51:26;;;;;;;9.65;5.30;;;;;;;2.30;100.00;100348.28;6086467;19;20101;-72
2023/11/28 02:53:29;;;;;;;9.77;4.20;;;;;;;2.27;100.00;100349.16;6082597;19;20006;-71
2023/11/28 02:55:35;;;;;;;8.30;4.18;;;;;;;2.19;100.00;100354.47;6092390;19;20014;-72
2023/11/28 02:57:40;;;;;;;13.95;5.45;;;;;;;2.23;100.00;100347.50;6086696;19;20017;-71
2023/11/28 02:59:49;;;;;;;9.05;5.13;;;;;;;2.25;100.00;100366.47;6090181;19;20018;-71
2023/11/28 03:01:54;;;;;;;8.15;3.92;;;;;;;2.27;100.00;100371.66;6092716;19;20051;-72
2023/11/28 03:03:59;;;;;;;10.45;4.35;;;;;;;2.25;100.00;100378.59;6089542;19;20086;-71
2023/11/28 03:06:07;;;;;;;7.25;3.70;;;;;;;2.26;100.00;100377.69;6091024;19;20035;-73
2023/11/28 03:08:12;;;;;;;6.18;2.88;;;;;;;2.22;100.00;100379.50;6092310;19;20032;-72
2023/11/28 03:10:14;;;;;;;6.40;4.53;;;;;;;2.16;100.00;100383.03;6092490;19;20356;-72
2023/11/28 03:12:19;;;;;;;4.05;3.30;;;;;;;2.11;100.00;100373.59;6092644;19;20010;-71
2023/11/28 03:14:26;;;;;;;6.75;3.30;;;;;;;2.10;100.00;100382.22;6093541;19;20034;-72
2023/11/28 03:16:33;;;;;;;8.88;3.58;;;;;;;2.09;100.00;100385.72;6087859;19;20707;-71
2023/11/28 03:18:39;;;;;;;7.70;3.63;;;;;;;2.03;100.00;100386.66;6088500;19;20011;-72
2023/11/28 03:20:41;;;;;;;7.75;3.47;;;;;;;1.99;100.00;100395.34;6095510;19;20502;-71
2023/11/28 03:22:46;;;;;;;6.75;3.80;;;;;;;1.91;100.00;100392.84;6095295;19;20054;-73
2023/11/28 03:24:51;;;;;;;6.40;3.63;;;;;;;1.85;100.00;100392.91;6091713;19;20013;-73
2023/11/28 03:26:56;;;;;;;8.05;3.20;;;;;;;1.86;100.00;100401.53;6090081;19;20010;-71
2023/11/28 03:29:00;;;;;;;4.35;2.42;;;;;;;1.80;100.00;100392.13;6090071;19;20352;-71
2023/11/28 03:31:06;;;;;;;5.10;3.88;;;;;;;1.73;100.00;100406.84;6088836;19;20459;-74
2023/11/28 03:33:14;;;;;;;6.85;4.32;;;;;;;1.66;100.00;100405.22;6089134;19;20343;-71
2023/11/28 03:35:19;;;;;;;2.78;1.95;;;;;;;1.63;100.00;100414.75;6087275;19;20010;-71
2023/11/28 03:37:26;;;;;;;4.47;2.35;;;;;;;1.53;100.00;100411.41;6085862;19;20546;-71
2023/11/28 03:39:31;;;;;;;6.32;3.45;;;;;;;1.50;100.00;100406.25;6086803;19;20006;-73
2023/11/28 03:41:37;;;;;;;7.20;2.42;;;;;;;1.45;100.00;100418.38;6087815;19;20494;-72
2023/11/28 03:43:39;;;;;;;3.17;2.00;;;;;;;1.41;100.00;100416.72;6087323;19;20039;-71
2023/11/28 03:45:44;;;;;;;5.18;2.78;;;;;;;1.36;100.00;100424.50;6089481;19;20011;-72
2023/11/28 03:47:49;;;;;;;6.93;3.00;;;;;;;1.27;100.00;100419.44;6089241;19;20042;-73
2023/11/28 03:49:56;;;;;;;3.50;2.75;;;;;;;1.28;100.00;100424.56;6088496;19;20459;-71
2023/11/28 03:52:01;;;;;;;2.17;1.85;;;;;;;1.23;100.00;100428.94;6086395;19;20052;-71
2023/11/28 03:54:06;;;;;;;2.80;2.17;;;;;;;1.14;100.00;100429.03;6081333;19;20023;-72
2023/11/28 03:56:12;;;;;;;3.22;2.17;;;;;;;1.11;100.00;100429.06;6084908;19;20006;-72
2023/11/28 03:58:17;;;;;;;3.53;1.90;;;;;;;1.13;100.00;100436.78;6086665;19;20018;-73
2023/11/28 04:00:22;;;;;;;4.15;2.83;;;;;;;1.06;100.00;100436.84;6084579;19;20007;-72
2023/11/28 04:02:24;;;;;;;2.63;1.77;;;;;;;1.01;100.00;100440.34;6081912;19;20002;-71
2023/11/28 04:04:32;;;;;;;2.05;1.70;;;;;;;1.02;100.00;100445.50;6087441;19;20027;-72
2023/11/28 04:06:39;;;;;;;2.28;1.65;;;;;;;1.00;100.00;100446.38;6085407;19;20363;-72
2023/11/28 04:08:44;;;;;;;2.47;1.73;;;;;;;1.01;100.00;100453.28;6087008;19;20007;-72
2023/11/28 04:10:49;;;;;;;3.17;2.10;;;;;;;0.91;100.00;100462.00;6088511;19;20081;-71
2023/11/28 04:12:54;;;;;;;3.10;2.15;;;;;;;0.90;100.00;100457.69;6089973;19;20056;-71
2023/11/28 04:14:59;;;;;;;1.83;1.63;;;;;;;0.86;100.00;100459.41;6087702;19;20009;-71
2023/11/28 04:17:04;;;;;;;3.58;2.00;;;;;;;0.81;100.00;100469.78;6087485;19;20075;-70
2023/11/28 04:19:10;;;;;;;1.30;1.20;;;;;;;0.82;100.00;100462.91;6088706;19;20557;-71
2023/11/28 04:21:19;;;;;;;3.55;2.42;;;;;;;0.77;100.00;100469.84;6078603;19;20032;-71
2023/11/28 04:23:26;;;;;;;5.90;1.58;;;;;;;0.77;100.00;100475.88;6088287;19;20482;-73
2023/11/28 04:25:31;;;;;;;3.25;2.33;;;;;;;0.74;100.00;100481.06;6088305;19;20461;-73
2023/11/28 04:27:38;;;;;;;3.50;1.30;;;;;;;0.72;100.00;100477.63;6088723;19;20021;-73
2023/11/28 04:29:43;;;;;;;1.50;1.40;;;;;;;0.74;100.00;100485.34;6088334;19;20311;-73
2023/11/28 04:31:49;;;;;;;2.50;1.67;;;;;;;0.72;100.00;100482.78;6088331;19;20006;-72
2023/11/28 04:33:54;;;;;;;2.53;1.98;;;;;;;0.70;100.00;100479.34;6086659;19;20022;-71
2023/11/28 04:35:58;;;;;;;3.40;2.10;;;;;;;0.70;100.00;100481.94;6085838;19;20471;-70
2023/11/28 04:38:03;;;;;;;1.48;1.27;;;;;;;0.70;100.00;100489.69;6085743;19;20015;-71
2023/11/28 04:40:12;;;;;;;3.30;2.17;;;;;;;0.67;100.00;100489.72;6087372;19;20006;-73
2023/11/28 04:42:16;;;;;;;2.83;1.75;;;;;;;0.64;100.00;100500.94;6088080;19;20498;-71
2023/11/28 04:44:21;;;;;;;1.75;1.65;;;;;;;0.64;100.00;100497.50;6090647;19;20479;-71
2023/11/28 04:46:26;;;;;;;3.65;2.03;;;;;;;0.64;100.00;100505.25;6090382;19;20010;-72
2023/11/28 04:48:32;;;;;;;3.35;2.35;;;;;;;0.58;100.00;100513.03;6090706;19;20114;-72
2023/11/28 04:50:37;;;;;;;2.33;1.60;;;;;;;0.58;100.00;100518.19;6091360;19;20050;-73
2023/11/28 04:52:39;;;;;;;3.20;1.65;;;;;;;0.58;100.00;100516.50;6087753;19;20094;-71
2023/11/28 04:54:44;;;;;;;2.65;1.90;;;;;;;0.57;100.00;100519.94;6089275;19;20007;-71
2023/11/28 04:56:52;;;;;;;1.63;1.52;;;;;;;0.55;100.00;100529.41;6088003;19;20023;-71
2023/11/28 04:58:57;;;;;;;2.13;1.83;;;;;;;0.56;100.00;100528.56;6085715;19;20007;-71
2023/11/28 05:01:04;;;;;;;2.70;1.90;;;;;;;0.58;100.00;100537.19;6089610;19;20011;-71
2023/11/28 05:03:09;;;;;;;5.53;2.00;;;;;;;0.57;100.00;100534.59;6089452;19;20010;-70
2023/11/28 05:05:14;;;;;;;1.73;1.63;;;;;;;0.52;100.00;100542.34;6084832;19;20026;-71
2023/11/28 05:07:19;;;;;;;3.15;2.13;;;;;;;0.54;100.00;100545.81;6086313;19;20444;-71
2023/11/28 05:09:27;;;;;;;3.40;1.83;;;;;;;0.48;100.00;100550.16;6087198;19;20010;-71
2023/11/28 05:11:32;;;;;;;3.67;2.08;;;;;;;0.46;100.00;100546.72;6085805;19;20013;-72
2023/11/28 05:13:37;;;;;;;4.10;2.03;;;;;;;0.43;100.00;100556.19;6086972;19;20010;-72
2023/11/28 05:15:42;;;;;;;5.75;2.75;;;;;;;0.38;100.00;100557.94;6084315;19;20463;-73
2023/11/28 05:17:47;;;;;;;2.33;2.00;;;;;;;0.40;100.00;100568.28;6086996;19;20007;-71
2023/11/28 05:19:51;;;;;;;2.55;2.35;;;;;;;0.39;100.00;100562.22;6080049;19;20234;-71
2023/11/28 05:21:58;;;;;;;4.75;2.05;;;;;;;0.37;100.00;100569.16;6080228;19;20066;-71
2023/11/28 05:24:03;;;;;;;7.82;2.78;;;;;;;0.36;100.00;100571.72;6084996;19;20003;-72
2023/11/28 05:26:12;;;;;;;4.78;2.88;;;;;;;0.34;100.00;100583.78;6085440;19;20018;-72
2023/11/28 05:28:16;;;;;;;1.95;1.75;;;;;;;0.29;100.00;100581.22;6087074;19;20052;-71
2023/11/28 05:30:24;;;;;;;2.58;2.00;;;;;;;0.29;100.00;100588.97;6083658;19;20014;-71
2023/11/28 05:32:26;;;;;;;4.25;1.48;;;;;;;0.28;100.00;100587.25;6078954;19;20098;-72
2023/11/28 05:34:31;;;;;;;3.20;1.73;;;;;;;0.22;100.00;100595.03;6084162;19;20269;-72
2023/11/28 05:36:35;;;;;;;5.45;2.80;;;;;;;0.19;100.00;100595.03;6081342;19;20010;-74
2023/11/28 05:38:41;;;;;;;2.03;1.45;;;;;;;0.19;100.00;100598.47;6084473;19;20019;-73
2023/11/28 05:40:46;;;;;;;1.90;1.80;;;;;;;0.22;100.00;100603.63;6083194;19;20034;-72
2023/11/28 05:42:51;;;;;;;2.72;1.70;;;;;;;0.17;100.00;100607.09;6083459;19;20038;-71
2023/11/28 05:44:56;;;;;;;2.20;1.30;;;;;;;0.16;100.00;100615.72;6083933;19;20007;-71
2023/11/28 05:47:00;;;;;;;2.78;2.20;;;;;;;0.18;100.00;100613.97;6084265;19;20010;-71
2023/11/28 05:49:06;;;;;;;3.00;2.10;;;;;;;0.15;100.00;100620.00;6085486;19;20014;-72
2023/11/28 05:51:11;;;;;;;3.42;2.20;;;;;;;0.13;100.00;100618.28;6084617;19;20483;-72
2023/11/28 05:53:19;;;;;;;1.55;1.45;;;;;;;0.09;100.00;100620.00;6085248;19;20020;-72
2023/11/28 05:55:25;;;;;;;3.30;1.73;;;;;;;0.10;100.00;100619.13;6078130;19;20011;-72
2023/11/28 05:57:28;;;;;;;3.03;2.38;;;;;;;0.05;100.00;100614.84;6082722;19;20090;-73
2023/11/28 05:59:34;;;;;;;2.05;1.67;;;;;;;0.02;100.00;100622.59;6083105;19;20085;-72
2023/11/28 06:01:59;;;;;;;3.03;2.00;;;;;;;-0.04;100.00;100619.16;6085206;19;20435;-71
2023/11/28 06:04:07;;;;;;;2.60;2.38;;;;;;;-0.06;100.00;100614.84;6081284;19;20430;-72
2023/11/28 06:06:13;;;;;;;2.40;1.60;;;;;;;-0.11;100.00;100620.03;6083208;19;20010;-72
2023/11/28 06:08:18;;;;;;;2.45;1.55;;;;;;;-0.17;100.00;100617.44;6083944;19;20364;-71
2023/11/28 06:10:23;;;;;;;1.70;1.35;;;;;;;-0.24;100.00;100629.50;6086998;19;20031;-73
2023/11/28 06:12:28;;;;;;;1.80;1.65;;;;;;;-0.24;100.00;100621.78;6085735;19;20015;-72
2023/11/28 06:14:30;;;;;;;2.47;1.88;;;;;;;-0.24;100.00;100626.94;6080183;19;20030;-74
2023/11/28 06:16:36;;;;;;;6.47;3.10;;;;;;;-0.18;100.00;100625.22;6087783;19;20507;-72
2023/11/28 06:18:41;;;;;;;2.10;1.95;;;;;;;-0.19;100.00;100626.91;6087780;19;20383;-73
2023/11/28 06:20:48;;;;;;;7.50;2.08;;;;;;;-0.21;100.00;100636.41;6087124;19;20019;-72
2023/11/28 06:22:53;;;;;;;2.22;1.83;;;;;;;-0.19;100.00;100642.41;6086820;19;20043;-72
2023/11/28 06:24:58;;;;;;;3.35;1.73;;;;;;;-0.22;100.00;100643.25;6088245;19;20036;-71
2023/11/28 06:27:03;;;;;;;2.90;1.83;;;;;;;-0.24;100.00;100642.44;6088246;19;20015;-71
2023/11/28 06:29:06;;;;;;;2.03;1.40;;;;;;;-0.27;100.00;100652.72;6093986;19;20055;-71
2023/11/28 06:31:12;;;;;;;2.60;1.70;;;;;;;-0.33;100.00;100651.88;6094304;19;20011;-73
2023/11/28 06:33:20;;;;;;;2.08;1.65;;;;;;;-0.42;100.00;100655.31;6092827;19;20307;-71
2023/11/28 06:35:26;;;;;;;2.47;1.60;;;;;;;-0.48;100.00;100652.72;6093116;19;20046;-72
2023/11/28 06:37:33;;;;;;;3.58;2.28;;;;;;;-0.54;100.00;100658.72;6093495;19;20010;-72
2023/11/28 06:39:39;;;;;;;2.53;1.73;;;;;;;-0.56;100.00;100664.75;6092909;19;20010;-72
2023/11/28 06:41:45;;;;;;;1.38;1.15;;;;;;;-0.55;100.00;100687.13;6094743;19;20031;-72
2023/11/28 06:43:49;;;;;;;2.63;1.92;;;;;;;-0.58;100.00;100681.94;6094028;19;20007;-72
2023/11/28 06:45:58;;;;;;;2.03;1.90;;;;;;;-0.62;100.00;100688.81;6093938;19;20002;-71
2023/11/28 06:48:04;;;;;;;7.35;2.10;;;;;;;-0.66;100.00;100697.38;6092078;19;20010;-72
2023/11/28 06:50:12;;;;;;;2.90;1.67;;;;;;;-0.70;100.00;100703.41;6090391;19;20010;-72
2023/11/28 06:52:15;;;;;;;3.95;1.83;;;;;;;-0.76;100.00;100704.25;6089817;19;20003;-72
2023/11/28 06:54:22;;;;;;;1.90;1.80;;;;;;;-0.78;100.00;100707.69;6088503;19;20010;-72
2023/11/28 06:56:27;;;;;;;3.17;1.80;;;;;;;-0.84;100.00;100712.81;6083755;19;20106;-73
2023/11/28 06:58:32;;;;;;;2.75;2.10;;;;;;;-0.80;100.00;100714.56;6085455;19;20434;-71
2023/11/28 07:00:37;;;;;;;2.15;1.95;;;;;;;-0.88;100.00;100715.38;6086527;19;20113;-71
2023/11/28 07:02:39;;;;;;;2.85;1.95;;;;;;;-0.92;100.00;100725.69;6090570;19;20018;-73
2023/11/28 07:04:46;;;;;;;1.75;1.38;;;;;;;-0.96;100.00;100724.81;6090257;19;20018;-72
2023/11/28 07:06:51;;;;;;;2.25;1.70;;;;;;;-0.93;100.00;100729.13;6086843;19;20011;-73
2023/11/28 07:08:56;;;;;;;4.00;1.45;;;;;;;-0.89;100.00;100733.44;6088363;19;20015;-72
2023/11/28 07:11:04;;;;;;;6.13;1.77;;;;;;;-0.81;100.00;100747.25;6086717;19;20040;-72
2023/11/28 07:13:09;;;;;;;2.30;1.58;;;;;;;-0.74;100.00;100748.13;6087873;19;20027;-72
2023/11/28 07:15:17;;;;;;;1.95;1.65;;;;;;;-0.72;100.00;100755.00;6083658;19;20023;-74
2023/11/28 07:17:22;;;;;;;2.53;1.98;;;;;;;-0.68;100.00;100753.31;6086870;19;20101;-74
2023/11/28 07:19:29;;;;;;;3.33;1.65;;;;;;;-0.68;100.00;100746.44;6088405;19;20350;-73
2023/11/28 07:21:33;;;;;;;3.72;2.42;;;;;;;-0.62;100.00;100747.31;6085768;19;20050;-73
2023/11/28 07:23:39;;;;;;;7.60;2.42;;;;;;;-0.63;100.00;100754.19;6087546;19;20010;-73
2023/11/28 07:25:44;;;;;;;5.63;1.77;;;;;;;-0.56;100.00;100748.19;6086922;19;20487;-72
2023/11/28 07:27:51;;;;;;;2.00;1.77;;;;;;;-0.43;100.00;100753.41;6084782;19;20482;-72
2023/11/28 07:29:56;;;;;;;4.68;2.15;;;;;;;-0.48;100.00;100758.53;6089267;19;20013;-72
2023/11/28 07:32:03;;;;;;;3.85;2.35;;;;;;;-0.44;100.00;100765.44;6082464;19;20015;-72
2023/11/28 07:34:07;;;;;;;4.32;2.50;;;;;;;-0.42;100.00;100757.69;6084567;19;20090;-72
2023/11/28 07:36:12;;;;;;;;;;;;;;;-0.47;100.00;100755.97;6092098;19;20014;-72
2023/11/28 07:38:14;;;;;;;3.13;1.63;;;;;;;-0.43;100.00;100762.00;6088157;19;19934;-72
2023/11/28 07:40:19;;;;;;;2.28;1.95;;;;;;;-0.45;100.00;100762.00;6093153;19;20006;-73
2023/11/28 07:42:24;;;;;;;4.53;2.85;;;;;;;-0.49;100.00;100765.41;6091775;19;20007;-72
2023/11/28 07:44:32;;;;;;;3.17;2.35;;;;;;;-0.54;100.00;100767.13;6093335;19;20133;-73
2023/11/28 07:46:37;;;;;;;2.28;2.00;;;;;;;-0.59;100.00;100771.41;6092088;19;20024;-71
2023/11/28 07:48:42;;;;;;;5.38;3.25;;;;;;;-0.57;100.00;100777.44;6090865;19;20015;-74
2023/11/28 07:50:44;;;;;;;4.72;2.25;;;;;;;-0.63;100.00;100769.69;6082960;19;20014;-72
2023/11/28 07:52:49;;;;;;;2.72;1.73;;;;;;;-0.69;100.00;100767.06;6082315;19;20046;-73
2023/11/28 07:54:58;;;;;;;6.93;2.15;;;;;;;-0.74;100.00;100769.63;6089254;19;20011;-72
2023/11/28 07:57:03;;;;;;;5.50;2.45;;;;;;;-0.79;100.00;100776.50;6086908;19;20445;-75
2023/11/28 07:59:09;;;;;;;3.53;2.78;;;;;;;-0.81;100.00;100779.91;6086881;19;20007;-74
2023/11/28 08:01:19;;;;;;;6.82;3.15;;;;;;;-0.83;100.00;100785.06;6086890;19;20814;-72
2023/11/28 08:03:24;;;;;;;11.68;2.97;;;;;;;-0.83;100.00;100785.06;6082449;19;20006;-72
2023/11/28 08:05:29;;;;;;;4.53;3.03;;;;;;;-0.85;100.00;100791.91;6086068;19;20078;-72
2023/11/28 08:07:35;;;;;;;2.80;2.30;;;;;;;-0.86;100.00;100779.88;6086127;19;20451;-72
2023/11/28 08:09:40;;;;;;;4.85;3.00;;;;;;;-0.90;100.00;100789.31;6086165;19;21450;-73
2023/11/28 08:11:45;;;;;;;4.20;2.50;;;;;;;-0.90;100.00;100791.88;6087254;19;20010;-72
2023/11/28 08:13:51;;;;;;;3.97;1.77;;;;;;;-0.88;100.00;100791.91;6088094;19;20010;-73
2023/11/28 08:15:58;;;;;;;3.25;2.45;;;;;;;-0.90;100.00;100799.63;6088093;19;20038;-78
2023/11/28 08:18:06;;;;;;;4.65;2.88;;;;;;;-0.88;100.00;100797.06;6084565;19;20010;-73
2023/11/28 08:20:13;;;;;;;3.65;2.40;;;;;;;-0.92;100.00;100803.94;6084913;19;20728;-73
2023/11/28 08:22:20;;;;;;;4.50;2.55;;;;;;;-0.90;100.00;100803.94;6084998;19;20011;-73
2023/11/28 08:24:24;;;;;;;2.75;2.03;;;;;;;-0.88;100.00;100800.50;6087375;19;20002;-74
2023/11/28 08:26:30;;;;;;;9.48;3.20;;;;;;;-0.89;100.00;100803.94;6084424;19;20438;-75
2023/11/28 08:28:35;;;;;;;5.45;2.88;;;;;;;-0.84;100.00;100806.56;6083171;19;20583;-74
2023/11/28 08:30:41;;;;;;;2.50;2.30;;;;;;;-0.83;100.00;100807.44;6084308;19;20048;-74
2023/11/28 08:32:46;;;;;;;5.00;2.35;;;;;;;-0.79;100.00;100806.56;6085283;19;20020;-73
2023/11/28 08:34:53;;;;;;;3.03;2.72;;;;;;;-0.71;100.00;100818.69;6084365;19;20006;-74
2023/11/28 08:36:58;;;;;;;4.95;2.63;;;;;;;-0.69;100.00;100826.41;6085762;19;20007;-74
2023/11/28 08:39:05;;;;;;;3.75;2.38;;;;;;;-0.72;100.00;100823.81;6083417;19;20007;-73
2023/11/28 08:41:10;;;;;;;3.47;2.50;;;;;;;-0.67;100.00;100833.31;6080591;19;20007;-72
2023/11/28 08:43:17;;;;;;;2.95;2.35;;;;;;;-0.65;100.00;100846.22;6083890;19;20007;-75
2023/11/28 08:45:22;;;;;;;5.82;2.55;;;;;;;-0.58;100.00;100840.25;6087214;19;20003;-76
2023/11/28 08:47:25;;;;;;;6.28;3.50;;;;;;;-0.51;100.00;100851.44;6085483;19;20062;-71
2023/11/28 08:49:30;;;;;;;4.90;2.70;;;;;;;-0.51;100.00;100849.72;6084850;19;20007;-71
2023/11/28 08:51:39;;;;;;;4.60;3.30;;;;;;;-0.40;100.00;100859.25;6081867;19;20011;-73
2023/11/28 08:53:43;;;;;;;5.30;2.50;;;;;;;-0.35;100.00;100857.56;6079464;19;20078;-72
2023/11/28 08:55:48;;;;;;;3.55;2.00;;;;;;;-0.37;100.00;100870.47;6084632;19;20006;-74
2023/11/28 08:57:53;;;;;;;3.42;2.47;;;;;;;-0.31;100.00;100867.06;6084209;19;20019;-73
2023/11/28 08:59:59;;;;;;;4.03;2.90;;;;;;;-0.27;100.00;100866.19;6083490;19;20014;-73
2023/11/28 09:02:04;;;;;;;2.25;2.05;;;;;;;-0.19;100.00;100866.22;6086451;19;20010;-71
2023/11/28 09:04:09;;;;;;;4.93;3.17;;;;;;;-0.09;100.00;100862.81;6084200;19;20023;-72
2023/11/28 09:06:14;;;;;;;5.75;2.72;;;;;;;-0.10;100.00;100864.53;6084747;19;19999;-72
2023/11/28 09:08:23;;;;;;;5.18;3.28;;;;;;;-0.08;100.00;100870.59;6079999;19;20010;-73
2023/11/28 09:10:25;;;;;;;5.80;3.70;;;;;;;-0.08;100.00;100868.00;6083696;19;20621;-73
2023/11/28 09:12:30;;;;;;;3.78;2.95;;;;;;;-0.01;100.00;100877.47;6082495;19;20507;-74
2023/11/28 09:14:36;;;;;;;4.28;2.80;;;;;;;-0.01;100.00;100874.91;6084649;19;20011;-74
2023/11/28 09:16:57;;;;;;;4.00;2.78;;;;;;;0.02;100.00;100873.19;6086310;19;20074;-72
2023/11/28 09:19:02;;;;;;;5.60;3.08;;;;;;;0.04;100.00;100879.22;6082701;19;20031;-72
2023/11/28 09:21:11;;;;;;;9.02;3.65;;;;;;;0.15;100.00;100869.78;6081753;19;20021;-72
2023/11/28 09:23:16;;;;;;;4.03;3.17;;;;;;;0.19;100.00;100877.56;6084635;19;20034;-72
2023/11/28 09:25:24;;;;;;;5.15;3.35;;;;;;;0.24;100.00;100880.16;6084616;19;20262;-73
2023/11/28 09:27:29;;;;;;;6.65;3.60;;;;;;;0.26;100.00;100882.72;6083432;19;20447;-72
2023/11/28 09:29:37;;;;;;;5.00;3.72;;;;;;;0.28;100.00;100893.94;6085005;19;20022;-73
2023/11/28 09:31:41;;;;;;;3.88;2.55;;;;;;;0.30;100.00;100890.50;6084675;19;20023;-72
2023/11/28 09:33:50;;;;;;;3.38;2.50;;;;;;;0.44;100.00;100890.53;6084800;19;20014;-73
2023/11/28 09:35:55;;;;;;;3.35;2.53;;;;;;;0.47;100.00;100892.25;6092120;19;20039;-74
2023/11/28 09:38:00;;;;;;;7.45;2.97;;;;;;;0.47;100.00;100892.25;6091246;19;20091;-72
2023/11/28 09:40:10;;;;;;;4.10;2.72;;;;;;;0.46;100.00;100899.16;6091701;19;20013;-72
2023/11/28 09:42:21;;;;;;;7.40;3.63;;;;;;;0.52;100.00;100898.28;6093775;19;20579;-73